Time,TemperatureF,DewpointF,PressureIn,WindDirection,WindDirectionDegrees,WindSpeedMPH,WindSpeedGustMPH,Humidity,HourlyPrecipIn,Conditions,Clouds,dailyrainin,SoftwareType,DateUTC
2013-02-10 00:00:00,26.2,17.1,30.43,NNW,327,0.0,0.0,67,0.00,,,0.00,WX3IN1Plus v1.30,2013-02-10 05:00:00,
2013-02-10 00:05:00,25.9,17.1,30.44,NNW,327,0.0,0.0,68,0.00,,,0.00,WX3IN1Plus v1.30,2013-02-10 05:05:00,
2013-02-10 00:10:00,25.8,16.7,30.44,NNW,327,0.0,0.0,68,0.00,,,0.00,WX3IN1Plus v1.30,2013-02-10 05:10:00,
2013-02-10 00:15:00,25.5,17.1,30.44,NNW,327,0.0,0.0,69,0.00,,,0.00,WX3IN1Plus v1.30,2013-02-10 05:15:00,
2013-02-10 00:20:00,25.5,17.1,30.44,NNW,327,0.0,0.0,69,0.00,,,0.00,WX3IN1Plus v1.30,2013-02-10 05:20:00,
2013-02-10 00:25:00,25.2,17.1,30.44,NNW,327,0.0,0.0,70,0.00,,,0.00,WX3IN1Plus v1.30,2013-02-10 05:25:00,
2013-02-10 00:30:00,25.0,16.7,30.44,NNW,327,0.0,0.0,70,0.00,,,0.00,WX3IN1Plus v1.30,2013-02-10 05:30:00,
2013-02-10 00:35:00,24.8,17.1,30.44,NNW,327,0.0,0.0,71,0.00,,,0.00,WX3IN1Plus v1.30,2013-02-10 05:35:00,
2013-02-10 00:40:00,24.8,17.3,30.44,NNW,327,0.0,0.0,72,0.00,,,0.00,WX3IN1Plus v1.30,2013-02-10 05:40:00,
2013-02-10 00:45:00,24.7,17.3,30.44,NNW,327,0.0,0.0,72,0.00,,,0.00,WX3IN1Plus v1.30,2013-02-10 05:45:00,
2013-02-10 00:50:00,24.3,16.7,30.44,NNW,327,0.0,0.0,72,0.00,,,0.00,WX3IN1Plus v1.30,2013-02-10 05:50:00,
2013-02-10 00:55:00,24.3,17.3,30.44,NNW,327,0.0,0.0,73,0.00,,,0.00,WX3IN1Plus v1.30,2013-02-10 05:55:00,
2013-02-10 01:00:00,24.0,17.1,30.44,NNW,327,0.0,0.0,73,0.00,,,0.00,WX3IN1Plus v1.30,2013-02-10 06:00:00,
2013-02-10 01:05:00,23.8,16.7,30.44,NNW,327,0.0,0.0,73,0.00,,,0.00,WX3IN1Plus v1.30,2013-02-10 06:05:00,
2013-02-10 01:10:00,23.8,17.1,30.45,NNW,327,0.0,0.0,74,0.00,,,0.00,WX3IN1Plus v1.30,2013-02-10 06:10:00,
2013-02-10 01:15:00,23.6,16.7,30.45,NNW,327,0.0,0.0,74,0.00,,,0.00,WX3IN1Plus v1.30,2013-02-10 06:15:00,
2013-02-10 01:20:00,23.3,16.6,30.46,NNW,327,0.0,0.0,74,0.00,,,0.00,WX3IN1Plus v1.30,2013-02-10 06:20:00,
2013-02-10 01:25:00,23.3,16.6,30.46,NNW,327,0.0,0.0,74,0.00,,,0.00,WX3IN1Plus v1.30,2013-02-10 06:25:00,
2013-02-10 01:30:00,22.9,16.2,30.46,NNW,327,0.0,0.0,74,0.00,,,0.00,WX3IN1Plus v1.30,2013-02-10 06:30:00,
2013-02-10 01:35:00,22.9,16.4,30.46,NNW,327,0.0,0.0,75,0.00,,,0.00,WX3IN1Plus v1.30,2013-02-10 06:35:00,
2013-02-10 01:40:00,22.8,16.7,30.46,NNW,327,0.0,0.0,76,0.00,,,0.00,WX3IN1Plus v1.30,2013-02-10 06:40:00,
2013-02-10 01:45:00,22.7,16.7,30.46,NNW,327,0.0,0.0,76,0.00,,,0.00,WX3IN1Plus v1.30,2013-02-10 06:45:00,
2013-02-10 01:50:00,22.5,16.6,30.46,NNW,327,0.0,0.0,76,0.00,,,0.00,WX3IN1Plus v1.30,2013-02-10 06:50:00,
2013-02-10 01:55:00,22.3,16.4,30.47,NNW,327,0.0,0.0,76,0.00,,,0.00,WX3IN1Plus v1.30,2013-02-10 06:55:00,
2013-02-10 02:00:00,22.4,16.4,30.47,NNW,327,0.0,0.0,76,0.00,,,0.00,WX3IN1Plus v1.30,2013-02-10 07:00:00,
2013-02-10 02:05:00,22.4,16.6,30.47,NNW,327,0.0,0.0,77,0.00,,,0.00,WX3IN1Plus v1.30,2013-02-10 07:05:00,
2013-02-10 02:10:00,22.3,16.6,30.48,NNW,327,0.0,0.0,77,0.00,,,0.00,WX3IN1Plus v1.30,2013-02-10 07:10:00,
2013-02-10 02:15:00,22.0,16.6,30.47,NNW,327,0.0,0.0,78,0.00,,,0.00,WX3IN1Plus v1.30,2013-02-10 07:15:00,
2013-02-10 02:20:00,21.7,16.2,30.48,NNW,327,0.0,0.0,78,0.00,,,0.00,WX3IN1Plus v1.30,2013-02-10 07:20:00,
2013-02-10 02:25:00,21.7,16.2,30.48,NNW,327,0.0,0.0,78,0.00,,,0.00,WX3IN1Plus v1.30,2013-02-10 07:25:00,
2013-02-10 02:30:00,21.6,16.2,30.48,NNW,327,0.0,0.0,78,0.00,,,0.00,WX3IN1Plus v1.30,2013-02-10 07:30:00,
2013-02-10 02:35:00,21.7,16.4,30.48,NNW,327,0.0,0.0,79,0.00,,,0.00,WX3IN1Plus v1.30,2013-02-10 07:35:00,
2013-02-10 02:40:00,21.4,16.2,30.48,NNW,327,0.0,0.0,79,0.00,,,0.00,WX3IN1Plus v1.30,2013-02-10 07:40:00,
2013-02-10 02:45:00,21.2,15.8,30.48,NNW,327,0.0,0.0,79,0.00,,,0.00,WX3IN1Plus v1.30,2013-02-10 07:45:00,
2013-02-10 02:50:00,21.3,16.6,30.48,NNW,327,0.0,0.0,80,0.00,,,0.00,WX3IN1Plus v1.30,2013-02-10 07:50:00,
2013-02-10 02:55:00,21.1,16.4,30.48,NNW,327,0.0,0.0,80,0.00,,,0.00,WX3IN1Plus v1.30,2013-02-10 07:55:00,
2013-02-10 03:00:00,21.1,16.4,30.48,NNW,327,0.0,0.0,80,0.00,,,0.00,WX3IN1Plus v1.30,2013-02-10 08:00:00,
2013-02-10 03:05:00,21.0,16.2,30.47,NNW,327,0.0,0.0,80,0.00,,,0.00,WX3IN1Plus v1.30,2013-02-10 08:05:00,
2013-02-10 03:10:00,20.7,15.8,30.47,NNW,327,0.0,0.0,80,0.00,,,0.00,WX3IN1Plus v1.30,2013-02-10 08:10:00,
2013-02-10 03:15:00,20.7,16.2,30.46,NNW,327,0.0,0.0,81,0.00,,,0.00,WX3IN1Plus v1.30,2013-02-10 08:15:00,
2013-02-10 03:20:00,20.6,16.2,30.46,NNW,327,0.0,0.0,81,0.00,,,0.00,WX3IN1Plus v1.30,2013-02-10 08:20:00,
2013-02-10 03:25:00,20.5,16.2,30.46,NNW,327,0.0,0.0,81,0.00,,,0.00,WX3IN1Plus v1.30,2013-02-10 08:25:00,
2013-02-10 03:30:00,20.3,15.7,30.46,NNW,327,0.0,0.0,81,0.00,,,0.00,WX3IN1Plus v1.30,2013-02-10 08:30:00,
2013-02-10 03:35:00,20.1,15.5,30.46,NNW,327,0.0,0.0,81,0.00,,,0.00,WX3IN1Plus v1.30,2013-02-10 08:35:00,
2013-02-10 03:40:00,20.1,15.7,30.46,NNW,327,0.0,0.0,82,0.00,,,0.00,WX3IN1Plus v1.30,2013-02-10 08:40:00,
2013-02-10 03:45:00,20.1,15.7,30.46,NNW,327,0.0,0.0,82,0.00,,,0.00,WX3IN1Plus v1.30,2013-02-10 08:45:00,
2013-02-10 03:50:00,20.0,15.7,30.46,NNW,327,0.0,0.0,82,0.00,,,0.00,WX3IN1Plus v1.30,2013-02-10 08:50:00,
2013-02-10 03:55:00,19.9,15.7,30.46,NNW,327,0.0,0.0,82,0.00,,,0.00,WX3IN1Plus v1.30,2013-02-10 08:55:00,
2013-02-10 04:00:00,19.8,15.7,30.46,NNW,327,0.0,0.0,82,0.00,,,0.00,WX3IN1Plus v1.30,2013-02-10 09:00:00,
2013-02-10 04:05:00,19.8,15.8,30.46,NNW,327,0.0,0.0,83,0.00,,,0.00,WX3IN1Plus v1.30,2013-02-10 09:05:00,
2013-02-10 04:10:00,19.8,15.8,30.46,NNW,327,0.0,0.0,83,0.00,,,0.00,WX3IN1Plus v1.30,2013-02-10 09:10:00,
2013-02-10 04:15:00,19.9,15.8,30.46,NNW,327,0.0,0.0,83,0.00,,,0.00,WX3IN1Plus v1.30,2013-02-10 09:15:00,
2013-02-10 04:20:00,19.7,15.7,30.46,NNW,327,0.0,0.0,83,0.00,,,0.00,WX3IN1Plus v1.30,2013-02-10 09:20:00,
2013-02-10 04:25:00,19.5,15.5,30.46,NNW,327,0.0,0.0,83,0.00,,,0.00,WX3IN1Plus v1.30,2013-02-10 09:25:00,
2013-02-10 04:30:00,19.4,15.7,30.46,NNW,327,0.0,0.0,84,0.00,,,0.00,WX3IN1Plus v1.30,2013-02-10 09:30:00,
2013-02-10 04:35:00,19.3,15.7,30.46,NNW,327,0.0,0.0,84,0.00,,,0.00,WX3IN1Plus v1.30,2013-02-10 09:35:00,
2013-02-10 04:40:00,19.3,15.7,30.46,NNW,327,0.0,0.0,84,0.00,,,0.00,WX3IN1Plus v1.30,2013-02-10 09:40:00,
2013-02-10 04:45:00,19.1,15.5,30.46,NNW,327,0.0,0.0,84,0.00,,,0.00,WX3IN1Plus v1.30,2013-02-10 09:45:00,
2013-02-10 04:50:00,18.9,15.5,30.46,NNW,327,0.0,0.0,84,0.00,,,0.00,WX3IN1Plus v1.30,2013-02-10 09:50:00,
2013-02-10 04:55:00,18.8,15.1,30.47,NNW,327,0.0,0.0,84,0.00,,,0.00,WX3IN1Plus v1.30,2013-02-10 09:55:00,
2013-02-10 05:00:00,18.9,15.7,30.47,NNW,327,0.0,0.0,85,0.00,,,0.00,WX3IN1Plus v1.30,2013-02-10 10:00:00,
2013-02-10 05:05:00,18.7,15.5,30.47,NNW,327,0.0,0.0,85,0.00,,,0.00,WX3IN1Plus v1.30,2013-02-10 10:05:00,
2013-02-10 05:10:00,18.6,15.1,30.48,NNW,327,0.0,0.0,85,0.00,,,0.00,WX3IN1Plus v1.30,2013-02-10 10:10:00,
2013-02-10 05:15:00,18.5,15.1,30.48,NNW,327,0.0,0.0,86,0.00,,,0.00,WX3IN1Plus v1.30,2013-02-10 10:15:00,
2013-02-10 05:20:00,18.4,15.1,30.48,NNW,327,0.0,0.0,86,0.00,,,0.00,WX3IN1Plus v1.30,2013-02-10 10:20:00,
2013-02-10 05:25:00,18.4,15.1,30.49,NNW,327,0.0,0.0,86,0.00,,,0.00,WX3IN1Plus v1.30,2013-02-10 10:25:00,
2013-02-10 05:30:00,18.3,15.1,30.49,NNW,327,0.0,0.0,86,0.00,,,0.00,WX3IN1Plus v1.30,2013-02-10 10:30:00,
2013-02-10 05:35:00,18.3,15.1,30.49,NNW,327,0.0,0.0,86,0.00,,,0.00,WX3IN1Plus v1.30,2013-02-10 10:35:00,
2013-02-10 05:40:00,18.0,14.9,30.49,NNW,327,0.0,0.0,86,0.00,,,0.00,WX3IN1Plus v1.30,2013-02-10 10:40:00,
2013-02-10 05:45:00,18.1,15.1,30.49,NNW,327,0.0,0.0,87,0.00,,,0.00,WX3IN1Plus v1.30,2013-02-10 10:45:00,
2013-02-10 05:50:00,18.1,15.1,30.49,NNW,327,0.0,0.0,87,0.00,,,0.00,WX3IN1Plus v1.30,2013-02-10 10:50:00,
2013-02-10 05:55:00,17.9,14.9,30.49,NNW,327,0.0,0.0,87,0.00,,,0.00,WX3IN1Plus v1.30,2013-02-10 10:55:00,
2013-02-10 06:00:00,17.9,14.9,30.50,NNW,327,0.0,0.0,87,0.00,,,0.00,WX3IN1Plus v1.30,2013-02-10 11:00:00,
2013-02-10 06:05:00,17.6,14.6,30.50,NNW,327,0.0,0.0,87,0.00,,,0.00,WX3IN1Plus v1.30,2013-02-10 11:05:00,
2013-02-10 06:10:00,17.5,14.6,30.50,NNW,327,0.0,0.0,87,0.00,,,0.00,WX3IN1Plus v1.30,2013-02-10 11:10:00,
2013-02-10 06:15:00,17.5,14.6,30.49,NNW,327,0.0,0.0,87,0.00,,,0.00,WX3IN1Plus v1.30,2013-02-10 11:15:00,
2013-02-10 06:20:00,17.7,14.8,30.49,NNW,327,0.0,0.0,87,0.00,,,0.00,WX3IN1Plus v1.30,2013-02-10 11:20:00,
2013-02-10 06:25:00,17.3,14.8,30.49,NNW,327,0.0,0.0,88,0.00,,,0.00,WX3IN1Plus v1.30,2013-02-10 11:25:00,
2013-02-10 06:30:00,17.4,14.8,30.49,NNW,327,0.0,0.0,88,0.00,,,0.00,WX3IN1Plus v1.30,2013-02-10 11:30:00,
2013-02-10 06:35:00,17.6,14.8,30.49,NNW,327,0.0,0.0,88,0.00,,,0.00,WX3IN1Plus v1.30,2013-02-10 11:35:00,
2013-02-10 06:40:00,17.7,14.9,30.49,NNW,327,0.0,0.0,88,0.00,,,0.00,WX3IN1Plus v1.30,2013-02-10 11:40:00,
2013-02-10 06:45:00,17.7,14.9,30.50,NNW,327,0.0,0.0,88,0.00,,,0.00,WX3IN1Plus v1.30,2013-02-10 11:45:00,
2013-02-10 06:50:00,17.6,14.8,30.50,NNW,327,0.0,0.0,88,0.00,,,0.00,WX3IN1Plus v1.30,2013-02-10 11:50:00,
2013-02-10 06:55:00,17.3,14.8,30.50,NNW,327,0.0,0.0,88,0.00,,,0.00,WX3IN1Plus v1.30,2013-02-10 11:55:00,
2013-02-10 07:00:00,17.3,14.8,30.50,NNW,327,0.0,0.0,88,0.00,,,0.00,WX3IN1Plus v1.30,2013-02-10 12:00:00,
2013-02-10 07:05:00,17.3,14.8,30.50,NNW,327,0.0,0.0,88,0.00,,,0.00,WX3IN1Plus v1.30,2013-02-10 12:05:00,
2013-02-10 07:10:00,17.2,14.6,30.50,NNW,327,0.0,0.0,88,0.00,,,0.00,WX3IN1Plus v1.30,2013-02-10 12:10:00,
2013-02-10 07:15:00,17.1,14.6,30.50,NNW,327,0.0,0.0,88,0.00,,,0.00,WX3IN1Plus v1.30,2013-02-10 12:15:00,
2013-02-10 07:20:00,17.0,14.2,30.50,NNW,327,0.0,0.0,88,0.00,,,0.00,WX3IN1Plus v1.30,2013-02-10 12:20:00,
2013-02-10 07:25:00,17.0,14.2,30.50,NNW,327,0.0,0.0,88,0.00,,,0.00,WX3IN1Plus v1.30,2013-02-10 12:25:00,
2013-02-10 07:30:00,17.0,14.6,30.50,NNW,327,0.0,0.0,89,0.00,,,0.00,WX3IN1Plus v1.30,2013-02-10 12:30:00,
2013-02-10 07:35:00,17.1,14.8,30.51,NNW,327,0.0,0.0,89,0.00,,,0.00,WX3IN1Plus v1.30,2013-02-10 12:35:00,
2013-02-10 07:40:00,17.3,14.9,30.51,NNW,327,0.0,0.0,89,0.00,,,0.00,WX3IN1Plus v1.30,2013-02-10 12:40:00,
2013-02-10 07:45:00,17.2,14.8,30.51,NNW,327,0.0,0.0,89,0.00,,,0.00,WX3IN1Plus v1.30,2013-02-10 12:45:00,
2013-02-10 07:50:00,17.3,14.9,30.51,NNW,327,0.0,0.0,89,0.00,,,0.00,WX3IN1Plus v1.30,2013-02-10 12:50:00,
2013-02-10 07:55:00,17.7,15.1,30.51,NNW,327,0.0,0.0,89,0.00,,,0.00,WX3IN1Plus v1.30,2013-02-10 12:55:00,
2013-02-10 08:00:00,18.1,15.8,30.51,NNW,327,0.0,0.0,90,0.00,,,0.00,WX3IN1Plus v1.30,2013-02-10 13:00:00,
2013-02-10 08:05:00,18.5,16.2,30.52,NNW,327,0.0,0.0,90,0.00,,,0.00,WX3IN1Plus v1.30,2013-02-10 13:05:00,
2013-02-10 08:10:00,18.9,16.7,30.52,NNW,327,0.0,0.0,90,0.00,,,0.00,WX3IN1Plus v1.30,2013-02-10 13:10:00,
2013-02-10 08:15:00,19.5,17.3,30.52,NNW,327,0.0,0.0,90,0.00,,,0.00,WX3IN1Plus v1.30,2013-02-10 13:15:00,
2013-02-10 08:20:00,20.0,17.8,30.52,NNW,327,0.0,0.0,90,0.00,,,0.00,WX3IN1Plus v1.30,2013-02-10 13:20:00,
2013-02-10 08:25:00,20.6,18.4,30.52,NNW,327,0.0,0.0,90,0.00,,,0.00,WX3IN1Plus v1.30,2013-02-10 13:25:00,
2013-02-10 08:30:00,21.2,18.7,30.52,NNW,327,0.0,0.0,89,0.00,,,0.00,WX3IN1Plus v1.30,2013-02-10 13:30:00,
2013-02-10 08:35:00,21.7,18.9,30.52,NNW,327,0.0,0.0,88,0.00,,,0.00,WX3IN1Plus v1.30,2013-02-10 13:35:00,
2013-02-10 08:40:00,22.2,19.4,30.52,NNW,327,0.0,0.0,88,0.00,,,0.00,WX3IN1Plus v1.30,2013-02-10 13:40:00,
2013-02-10 08:45:00,23.0,19.8,30.51,NNW,327,0.0,0.0,87,0.00,,,0.00,WX3IN1Plus v1.30,2013-02-10 13:45:00,
2013-02-10 08:50:00,23.8,20.3,30.51,NNW,327,0.0,0.0,85,0.00,,,0.00,WX3IN1Plus v1.30,2013-02-10 13:50:00,
2013-02-10 08:55:00,24.5,20.3,30.51,NNW,327,0.0,0.0,83,0.00,,,0.00,WX3IN1Plus v1.30,2013-02-10 13:55:00,
2013-02-10 09:00:00,25.7,20.7,30.51,East,92,0.0,0.7,80,0.00,,,0.00,WX3IN1Plus v1.30,2013-02-10 14:00:00,
2013-02-10 09:05:00,26.5,20.5,30.51,East,92,0.0,0.0,77,0.00,,,0.00,WX3IN1Plus v1.30,2013-02-10 14:05:00,
2013-02-10 09:10:00,27.4,20.5,30.51,NNE,28,0.0,2.6,74,0.00,,,0.00,WX3IN1Plus v1.30,2013-02-10 14:10:00,
2013-02-10 09:16:00,28.0,21.1,30.51,NNE,28,0.0,0.0,74,0.00,,,0.00,WX3IN1Plus v1.30,2013-02-10 14:16:00,
2013-02-10 09:21:00,28.8,21.2,30.50,East,92,0.0,3.0,72,0.00,,,0.00,WX3IN1Plus v1.30,2013-02-10 14:21:00,
2013-02-10 09:26:00,29.4,20.7,30.50,NNE,21,2.7,3.5,69,0.00,,,0.00,WX3IN1Plus v1.30,2013-02-10 14:26:00,
2013-02-10 09:31:00,29.8,20.7,30.50,East,81,0.0,3.5,68,0.00,,,0.00,WX3IN1Plus v1.30,2013-02-10 14:31:00,
2013-02-10 09:36:00,30.2,20.7,30.51,NE,43,3.4,3.9,67,0.00,,,0.00,WX3IN1Plus v1.30,2013-02-10 14:36:00,
2013-02-10 09:41:00,30.8,21.1,30.51,North,1,0.0,5.0,66,0.00,,,0.00,WX3IN1Plus v1.30,2013-02-10 14:41:00,
2013-02-10 09:46:00,31.3,20.7,30.51,NNE,32,1.4,3.7,64,0.00,,,0.00,WX3IN1Plus v1.30,2013-02-10 14:46:00,
2013-02-10 09:51:00,31.6,20.7,30.50,North,355,0.0,2.2,63,0.00,,,0.00,WX3IN1Plus v1.30,2013-02-10 14:51:00,
2013-02-10 09:56:00,32.0,21.1,30.50,East,81,2.9,2.9,63,0.00,,,0.00,WX3IN1Plus v1.30,2013-02-10 14:56:00,
2013-02-10 10:01:00,32.4,20.0,30.50,NE,50,5.6,6.8,60,0.00,,,0.00,WX3IN1Plus v1.30,2013-02-10 15:01:00,
2013-02-10 10:06:00,32.7,19.8,30.50,NNE,33,0.0,5.9,59,0.00,,,0.00,WX3IN1Plus v1.30,2013-02-10 15:06:00,
2013-02-10 10:11:00,33.0,20.0,30.51,SSE,160,0.0,5.8,59,0.00,,,0.00,WX3IN1Plus v1.30,2013-02-10 15:11:00,
2013-02-10 10:16:00,33.1,20.3,30.51,SSE,160,0.0,0.0,59,0.00,,,0.00,WX3IN1Plus v1.30,2013-02-10 15:16:00,
2013-02-10 10:21:00,33.4,20.3,30.51,West,260,0.0,4.0,58,0.00,,,0.00,WX3IN1Plus v1.30,2013-02-10 15:21:00,
2013-02-10 10:26:00,33.5,19.8,30.51,East,90,0.0,5.7,57,0.00,,,0.00,WX3IN1Plus v1.30,2013-02-10 15:26:00,
2013-02-10 10:31:00,33.8,20.3,30.51,ENE,66,0.8,5.9,57,0.00,,,0.00,WX3IN1Plus v1.30,2013-02-10 15:31:00,
2013-02-10 10:36:00,34.0,19.4,30.52,NNE,18,0.0,3.9,55,0.00,,,0.00,WX3IN1Plus v1.30,2013-02-10 15:36:00,
2013-02-10 10:41:00,34.1,18.9,30.52,NNE,30,0.0,1.6,54,0.00,,,0.00,WX3IN1Plus v1.30,2013-02-10 15:41:00,
2013-02-10 10:46:00,34.2,19.6,30.52,SSE,157,0.0,3.7,55,0.00,,,0.00,WX3IN1Plus v1.30,2013-02-10 15:46:00,
2013-02-10 10:51:00,34.3,19.1,30.52,ENE,66,0.0,2.1,54,0.00,,,0.00,WX3IN1Plus v1.30,2013-02-10 15:51:00,
2013-02-10 10:56:00,34.6,19.6,30.52,WSW,246,3.4,3.8,54,0.00,,,0.00,WX3IN1Plus v1.30,2013-02-10 15:56:00,
2013-02-10 11:01:00,34.8,20.5,30.52,SE,132,0.8,6.7,56,0.00,,,0.00,WX3IN1Plus v1.30,2013-02-10 16:01:00,
2013-02-10 11:06:00,35.1,20.5,30.52,WSW,237,0.0,5.9,55,0.00,,,0.00,WX3IN1Plus v1.30,2013-02-10 16:06:00,
2013-02-10 11:11:00,35.2,20.5,30.52,South,174,0.0,5.9,55,0.00,,,0.00,WX3IN1Plus v1.30,2013-02-10 16:11:00,
2013-02-10 11:16:00,35.4,20.5,30.53,SE,126,0.0,7.2,55,0.00,,,0.00,WX3IN1Plus v1.30,2013-02-10 16:16:00,
2013-02-10 11:21:00,35.4,20.0,30.52,South,182,1.3,2.1,54,0.00,,,0.00,WX3IN1Plus v1.30,2013-02-10 16:21:00,
2013-02-10 11:26:00,35.9,21.2,30.52,SSW,202,0.3,4.1,55,0.00,,,0.00,WX3IN1Plus v1.30,2013-02-10 16:26:00,
2013-02-10 11:31:00,36.2,21.1,30.52,South,174,3.4,5.7,54,0.00,,,0.00,WX3IN1Plus v1.30,2013-02-10 16:31:00,
2013-02-10 11:36:00,36.4,20.0,30.52,West,262,3.9,4.9,51,0.00,,,0.00,WX3IN1Plus v1.30,2013-02-10 16:36:00,
2013-02-10 11:41:00,36.5,19.1,30.52,WSW,257,6.1,7.2,49,0.00,,,0.00,WX3IN1Plus v1.30,2013-02-10 16:41:00,
2013-02-10 11:46:00,36.6,19.1,30.51,South,191,4.4,6.7,49,0.00,,,0.00,WX3IN1Plus v1.30,2013-02-10 16:46:00,
2013-02-10 11:51:00,36.9,19.1,30.51,SSW,209,5.1,5.5,48,0.00,,,0.00,WX3IN1Plus v1.30,2013-02-10 16:51:00,
2013-02-10 11:56:00,37.1,18.7,30.51,SE,127,0.0,7.2,47,0.00,,,0.00,WX3IN1Plus v1.30,2013-02-10 16:56:00,
2013-02-10 12:01:00,37.4,18.9,30.50,SSE,161,3.3,5.2,47,0.00,,,0.00,WX3IN1Plus v1.30,2013-02-10 17:01:00,
2013-02-10 12:06:00,37.7,19.1,30.49,SSE,165,3.5,6.8,47,0.00,,,0.00,WX3IN1Plus v1.30,2013-02-10 17:06:00,
2013-02-10 12:11:00,37.9,19.1,30.49,South,182,0.0,6.8,47,0.00,,,0.00,WX3IN1Plus v1.30,2013-02-10 17:11:00,
2013-02-10 12:16:00,37.9,19.1,30.49,SSE,163,4.7,8.0,47,0.00,,,0.00,WX3IN1Plus v1.30,2013-02-10 17:16:00,
2013-02-10 12:21:00,37.8,19.1,30.48,WSW,244,3.9,5.4,47,0.00,,,0.00,WX3IN1Plus v1.30,2013-02-10 17:21:00,
2013-02-10 12:26:00,37.8,19.1,30.49,SSE,165,1.8,4.1,47,0.00,,,0.00,WX3IN1Plus v1.30,2013-02-10 17:26:00,
2013-02-10 12:31:00,38.3,20.5,30.49,SSW,205,0.0,7.5,48,0.00,,,0.00,WX3IN1Plus v1.30,2013-02-10 17:31:00,
2013-02-10 12:36:00,38.5,20.5,30.49,SSE,157,0.0,4.9,48,0.00,,,0.00,WX3IN1Plus v1.30,2013-02-10 17:36:00,
2013-02-10 12:41:00,38.8,21.2,30.49,SE,144,0.0,6.4,49,0.00,,,0.00,WX3IN1Plus v1.30,2013-02-10 17:41:00,
2013-02-10 12:46:00,39.2,20.5,30.49,West,268,0.0,3.4,47,0.00,,,0.00,WX3IN1Plus v1.30,2013-02-10 17:46:00,
2013-02-10 12:51:00,39.4,22.0,30.49,West,268,5.8,6.9,49,0.00,,,0.00,WX3IN1Plus v1.30,2013-02-10 17:51:00,
2013-02-10 12:56:00,39.7,21.4,30.49,SSW,203,0.0,7.0,48,0.00,,,0.00,WX3IN1Plus v1.30,2013-02-10 17:56:00,
2013-02-10 13:01:00,40.1,22.1,30.49,WSW,255,4.1,6.4,48,0.00,,,0.00,WX3IN1Plus v1.30,2013-02-10 18:01:00,
2013-02-10 13:06:00,40.1,21.4,30.49,South,172,3.2,5.8,47,0.00,,,0.00,WX3IN1Plus v1.30,2013-02-10 18:06:00,
2013-02-10 13:11:00,40.6,21.2,30.48,West,260,6.3,8.1,46,0.00,,,0.00,WX3IN1Plus v1.30,2013-02-10 18:11:00,
2013-02-10 13:16:00,40.7,21.1,30.48,South,187,3.4,6.3,45,0.00,,,0.00,WX3IN1Plus v1.30,2013-02-10 18:16:00,
2013-02-10 13:21:00,41.1,19.6,30.47,SSE,151,5.0,8.6,42,0.00,,,0.00,WX3IN1Plus v1.30,2013-02-10 18:21:00,
2013-02-10 13:26:00,41.4,21.1,30.47,SSE,161,1.7,7.3,44,0.00,,,0.00,WX3IN1Plus v1.30,2013-02-10 18:26:00,
2013-02-10 13:31:00,41.8,21.1,30.47,SSW,209,5.5,6.2,43,0.00,,,0.00,WX3IN1Plus v1.30,2013-02-10 18:31:00,
2013-02-10 13:36:00,42.2,20.5,30.46,East,91,0.6,7.8,42,0.00,,,0.00,WX3IN1Plus v1.30,2013-02-10 18:36:00,
2013-02-10 13:41:00,42.5,21.1,30.46,South,174,1.3,7.5,42,0.00,,,0.00,WX3IN1Plus v1.30,2013-02-10 18:41:00,
2013-02-10 13:46:00,42.7,20.5,30.46,SSW,206,0.0,6.4,41,0.00,,,0.00,WX3IN1Plus v1.30,2013-02-10 18:46:00,
2013-02-10 13:51:00,42.5,20.5,30.46,SSE,165,5.7,9.9,41,0.00,,,0.00,WX3IN1Plus v1.30,2013-02-10 18:51:00,
2013-02-10 13:56:00,42.5,20.5,30.46,SSW,199,2.2,8.2,41,0.00,,,0.00,WX3IN1Plus v1.30,2013-02-10 18:56:00,
2013-02-10 14:01:00,42.8,20.7,30.45,SE,144,4.3,7.1,41,0.00,,,0.00,WX3IN1Plus v1.30,2013-02-10 19:01:00,
2013-02-10 14:06:00,42.9,20.7,30.44,South,182,2.2,7.0,41,0.00,,,0.00,WX3IN1Plus v1.30,2013-02-10 19:06:00,
2013-02-10 14:11:00,42.6,19.4,30.44,ENE,78,2.0,8.0,39,0.00,,,0.00,WX3IN1Plus v1.30,2013-02-10 19:11:00,
2013-02-10 14:16:00,42.8,20.0,30.44,NNW,348,0.0,6.3,40,0.00,,,0.00,WX3IN1Plus v1.30,2013-02-10 19:16:00,
2013-02-10 14:21:00,42.6,19.4,30.44,WSW,241,0.0,8.8,39,0.00,,,0.00,WX3IN1Plus v1.30,2013-02-10 19:21:00,
2013-02-10 14:26:00,42.5,18.7,30.43,South,182,0.0,8.0,38,0.00,,,0.00,WX3IN1Plus v1.30,2013-02-10 19:26:00,
2013-02-10 14:31:00,42.5,18.7,30.43,WSW,244,5.2,10.0,38,0.00,,,0.00,WX3IN1Plus v1.30,2013-02-10 19:31:00,
2013-02-10 14:36:00,42.5,19.4,30.43,ESE,116,0.0,6.2,39,0.00,,,0.00,WX3IN1Plus v1.30,2013-02-10 19:36:00,
2013-02-10 14:41:00,42.6,19.4,30.43,South,178,1.6,5.1,39,0.00,,,0.00,WX3IN1Plus v1.30,2013-02-10 19:41:00,
2013-02-10 14:46:00,42.6,18.7,30.43,South,182,2.1,5.6,38,0.00,,,0.00,WX3IN1Plus v1.30,2013-02-10 19:46:00,
2013-02-10 14:51:00,42.8,18.4,30.43,NE,56,1.3,8.7,37,0.00,,,0.00,WX3IN1Plus v1.30,2013-02-10 19:51:00,
2013-02-10 14:56:00,42.6,18.7,30.43,SSE,158,0.8,7.6,38,0.00,,,0.00,WX3IN1Plus v1.30,2013-02-10 19:56:00,
2013-02-10 15:01:00,42.5,19.4,30.43,SE,135,5.2,6.5,39,0.00,,,0.00,WX3IN1Plus v1.30,2013-02-10 20:01:00,
2013-02-10 15:06:00,42.4,19.1,30.43,SSE,147,1.6,8.0,39,0.00,,,0.00,WX3IN1Plus v1.30,2013-02-10 20:06:00,
2013-02-10 15:11:00,42.4,19.1,30.43,East,87,4.5,7.3,39,0.00,,,0.00,WX3IN1Plus v1.30,2013-02-10 20:11:00,
2013-02-10 15:16:00,42.4,19.6,30.43,SSE,160,4.0,7.8,40,0.00,,,0.00,WX3IN1Plus v1.30,2013-02-10 20:16:00,
2013-02-10 15:21:00,42.4,19.1,30.42,WSW,253,5.0,10.6,39,0.00,,,0.00,WX3IN1Plus v1.30,2013-02-10 20:21:00,
2013-02-10 15:26:00,42.1,18.9,30.43,SE,129,0.6,8.3,39,0.00,,,0.00,WX3IN1Plus v1.30,2013-02-10 20:26:00,
2013-02-10 15:31:00,41.9,19.4,30.43,ESE,112,1.3,5.4,40,0.00,,,0.00,WX3IN1Plus v1.30,2013-02-10 20:31:00,
2013-02-10 15:36:00,42.0,18.9,30.42,SW,217,3.3,5.1,39,0.00,,,0.00,WX3IN1Plus v1.30,2013-02-10 20:36:00,
2013-02-10 15:41:00,42.0,18.9,30.42,South,170,5.2,8.0,39,0.00,,,0.00,WX3IN1Plus v1.30,2013-02-10 20:41:00,
2013-02-10 15:46:00,42.1,18.2,30.42,SE,130,4.5,10.6,38,0.00,,,0.00,WX3IN1Plus v1.30,2013-02-10 20:46:00,
2013-02-10 15:51:00,41.7,17.8,30.42,SSW,209,3.6,9.0,38,0.00,,,0.00,WX3IN1Plus v1.30,2013-02-10 20:51:00,
2013-02-10 15:56:00,41.5,17.5,30.42,SSW,199,0.0,9.0,38,0.00,,,0.00,WX3IN1Plus v1.30,2013-02-10 20:56:00,
2013-02-10 16:01:00,41.4,17.5,30.42,SW,217,3.4,7.5,38,0.00,,,0.00,WX3IN1Plus v1.30,2013-02-10 21:01:00,
2013-02-10 16:06:00,41.3,17.5,30.42,SE,143,0.0,7.4,38,0.00,,,0.00,WX3IN1Plus v1.30,2013-02-10 21:06:00,
2013-02-10 16:11:00,41.0,17.3,30.42,SE,142,4.7,6.9,38,0.00,,,0.00,WX3IN1Plus v1.30,2013-02-10 21:11:00,
2013-02-10 16:16:00,40.9,17.8,30.42,SW,236,0.0,6.7,39,0.00,,,0.00,WX3IN1Plus v1.30,2013-02-10 21:16:00,
2013-02-10 16:21:00,40.7,18.2,30.41,South,181,3.7,8.3,40,0.00,,,0.00,WX3IN1Plus v1.30,2013-02-10 21:21:00,
2013-02-10 16:26:00,40.5,18.0,30.41,SE,132,0.0,6.0,40,0.00,,,0.00,WX3IN1Plus v1.30,2013-02-10 21:26:00,
2013-02-10 16:31:00,40.0,18.2,30.42,SE,126,3.2,9.0,41,0.00,,,0.00,WX3IN1Plus v1.30,2013-02-10 21:31:00,
2013-02-10 16:36:00,39.7,18.9,30.41,ESE,104,0.0,7.2,43,0.00,,,0.00,WX3IN1Plus v1.30,2013-02-10 21:36:00,
2013-02-10 16:41:00,39.1,19.4,30.41,South,172,0.0,6.2,45,0.00,,,0.00,WX3IN1Plus v1.30,2013-02-10 21:41:00,
2013-02-10 16:46:00,38.7,19.1,30.41,ENE,68,0.0,6.0,45,0.00,,,0.00,WX3IN1Plus v1.30,2013-02-10 21:46:00,
2013-02-10 16:51:00,38.5,18.9,30.41,WSW,243,0.0,4.8,45,0.00,,,0.00,WX3IN1Plus v1.30,2013-02-10 21:51:00,
2013-02-10 16:56:00,38.3,19.4,30.42,WSW,243,0.0,0.0,46,0.00,,,0.00,WX3IN1Plus v1.30,2013-02-10 21:56:00,
2013-02-10 17:01:00,37.8,19.1,30.43,WSW,243,0.0,0.0,47,0.00,,,0.00,WX3IN1Plus v1.30,2013-02-10 22:01:00,
2013-02-10 17:06:00,37.5,18.9,30.42,SSW,205,1.4,4.5,47,0.00,,,0.00,WX3IN1Plus v1.30,2013-02-10 22:06:00,
2013-02-10 17:11:00,37.6,18.7,30.42,WSW,237,2.7,6.7,46,0.00,,,0.00,WX3IN1Plus v1.30,2013-02-10 22:11:00,
2013-02-10 17:16:00,37.3,18.2,30.43,WSW,257,1.5,4.3,46,0.00,,,0.00,WX3IN1Plus v1.30,2013-02-10 22:16:00,
2013-02-10 17:21:00,37.1,18.2,30.43,WSW,241,1.6,3.4,46,0.00,,,0.00,WX3IN1Plus v1.30,2013-02-10 22:21:00,
2013-02-10 17:26:00,37.0,18.0,30.43,SSE,167,1.6,3.9,46,0.00,,,0.00,WX3IN1Plus v1.30,2013-02-10 22:26:00,
2013-02-10 17:31:00,36.9,18.0,30.43,SSW,192,1.8,9.6,46,0.00,,,0.00,WX3IN1Plus v1.30,2013-02-10 22:31:00,
2013-02-10 17:36:00,36.9,18.0,30.42,SSW,206,0.8,8.2,46,0.00,,,0.00,WX3IN1Plus v1.30,2013-02-10 22:36:00,
2013-02-10 17:41:00,36.8,17.8,30.42,SSE,163,2.3,5.4,46,0.00,,,0.00,WX3IN1Plus v1.30,2013-02-10 22:41:00,
2013-02-10 17:46:00,36.6,17.5,30.41,WSW,237,0.0,6.3,46,0.00,,,0.00,WX3IN1Plus v1.30,2013-02-10 22:46:00,
2013-02-10 17:51:00,36.8,17.8,30.42,SW,216,4.7,5.7,46,0.00,,,0.00,WX3IN1Plus v1.30,2013-02-10 22:51:00,
2013-02-10 17:56:00,36.6,17.5,30.41,SSW,192,0.0,6.4,46,0.00,,,0.00,WX3IN1Plus v1.30,2013-02-10 22:56:00,
2013-02-10 18:01:00,36.6,17.5,30.41,SE,129,0.0,5.0,46,0.00,,,0.00,WX3IN1Plus v1.30,2013-02-10 23:01:00,
2013-02-10 18:06:00,36.8,17.8,30.41,South,170,0.0,7.8,46,0.00,,,0.00,WX3IN1Plus v1.30,2013-02-10 23:06:00,
2013-02-10 18:11:00,36.8,18.2,30.42,South,189,0.6,6.5,47,0.00,,,0.00,WX3IN1Plus v1.30,2013-02-10 23:11:00,
2013-02-10 18:16:00,36.8,18.2,30.42,SSW,209,0.0,7.2,47,0.00,,,0.00,WX3IN1Plus v1.30,2013-02-10 23:16:00,
2013-02-10 18:21:00,36.8,18.9,30.42,South,174,0.0,4.8,48,0.00,,,0.00,WX3IN1Plus v1.30,2013-02-10 23:21:00,
2013-02-10 18:26:00,36.8,18.9,30.42,South,174,0.0,7.4,48,0.00,,,0.00,WX3IN1Plus v1.30,2013-02-10 23:26:00,
2013-02-10 18:32:00,36.8,18.9,30.42,SE,139,3.2,6.0,48,0.00,,,0.00,WX3IN1Plus v1.30,2013-02-10 23:32:00,
2013-02-10 18:37:00,36.8,19.4,30.42,SSE,149,0.0,4.7,49,0.00,,,0.00,WX3IN1Plus v1.30,2013-02-10 23:37:00,
2013-02-10 18:42:00,36.8,19.4,30.42,SW,216,3.4,6.1,49,0.00,,,0.00,WX3IN1Plus v1.30,2013-02-10 23:42:00,
2013-02-10 18:47:00,36.6,19.1,30.42,WSW,239,3.7,5.5,49,0.00,,,0.00,WX3IN1Plus v1.30,2013-02-10 23:47:00,
2013-02-10 18:52:00,36.7,19.8,30.41,WSW,243,4.0,4.4,50,0.00,,,0.00,WX3IN1Plus v1.30,2013-02-10 23:52:00,
2013-02-10 18:57:00,36.7,20.3,30.41,WSW,241,4.5,10.8,51,0.00,,,0.00,WX3IN1Plus v1.30,2013-02-10 23:57:00,
2013-02-10 19:02:00,36.8,20.3,30.41,South,177,0.7,8.0,51,0.00,,,0.00,WX3IN1Plus v1.30,2013-02-11 00:02:00,
2013-02-10 19:07:00,36.9,21.1,30.41,SW,236,1.9,5.1,52,0.00,,,0.00,WX3IN1Plus v1.30,2013-02-11 00:07:00,
2013-02-10 19:12:00,36.7,20.7,30.41,SSE,156,2.2,7.2,52,0.00,,,0.00,WX3IN1Plus v1.30,2013-02-11 00:12:00,
2013-02-10 19:17:00,36.7,21.2,30.40,WSW,240,5.2,5.2,53,0.00,,,0.00,WX3IN1Plus v1.30,2013-02-11 00:17:00,
2013-02-10 19:22:00,36.8,21.2,30.40,SSW,196,2.2,6.3,53,0.00,,,0.00,WX3IN1Plus v1.30,2013-02-11 00:22:00,
2013-02-10 19:27:00,36.8,20.7,30.40,WSW,250,1.9,7.0,52,0.00,,,0.00,WX3IN1Plus v1.30,2013-02-11 00:27:00,
2013-02-10 19:32:00,36.8,20.3,30.39,SW,220,1.3,8.5,51,0.00,,,0.00,WX3IN1Plus v1.30,2013-02-11 00:32:00,
2013-02-10 19:37:00,37.0,20.5,30.39,South,191,1.4,7.8,51,0.00,,,0.00,WX3IN1Plus v1.30,2013-02-11 00:37:00,
2013-02-10 19:42:00,37.0,20.5,30.39,SW,225,2.8,4.6,51,0.00,,,0.00,WX3IN1Plus v1.30,2013-02-11 00:42:00,
2013-02-10 19:47:00,36.9,20.0,30.38,WSW,241,3.7,8.7,50,0.00,,,0.00,WX3IN1Plus v1.30,2013-02-11 00:47:00,
2013-02-10 19:52:00,37.0,20.0,30.38,South,182,1.7,9.2,50,0.00,,,0.00,WX3IN1Plus v1.30,2013-02-11 00:52:00,
2013-02-10 19:57:00,36.9,19.6,30.38,SW,217,3.9,8.0,49,0.00,,,0.00,WX3IN1Plus v1.30,2013-02-11 00:57:00,
2013-02-10 20:02:00,36.9,19.6,30.38,SSW,194,4.5,7.9,49,0.00,,,0.00,WX3IN1Plus v1.30,2013-02-11 01:02:00,
2013-02-10 20:07:00,36.9,19.1,30.37,South,180,1.8,8.5,48,0.00,,,0.00,WX3IN1Plus v1.30,2013-02-11 01:07:00,
2013-02-10 20:12:00,36.9,19.1,30.37,SSE,153,0.0,5.9,48,0.00,,,0.00,WX3IN1Plus v1.30,2013-02-11 01:12:00,
2013-02-10 20:17:00,36.9,19.1,30.38,SW,219,0.0,6.0,48,0.00,,,0.00,WX3IN1Plus v1.30,2013-02-11 01:17:00,
2013-02-10 20:22:00,36.7,18.9,30.38,SSW,203,0.0,2.9,48,0.00,,,0.00,WX3IN1Plus v1.30,2013-02-11 01:22:00,
2013-02-10 20:27:00,36.9,19.6,30.38,SW,216,2.4,6.2,49,0.00,,,0.00,WX3IN1Plus v1.30,2013-02-11 01:27:00,
2013-02-10 20:32:00,36.9,19.6,30.38,West,265,2.3,5.5,49,0.00,,,0.00,WX3IN1Plus v1.30,2013-02-11 01:32:00,
2013-02-10 20:37:00,36.6,19.6,30.39,SSE,164,0.0,6.3,50,0.00,,,0.00,WX3IN1Plus v1.30,2013-02-11 01:37:00,
2013-02-10 20:42:00,36.7,20.3,30.38,SW,219,2.7,4.2,51,0.00,,,0.00,WX3IN1Plus v1.30,2013-02-11 01:42:00,
2013-02-10 20:47:00,36.7,20.7,30.39,South,177,0.0,5.0,52,0.00,,,0.00,WX3IN1Plus v1.30,2013-02-11 01:47:00,
2013-02-10 20:52:00,36.6,21.2,30.39,SW,220,0.0,7.2,54,0.00,,,0.00,WX3IN1Plus v1.30,2013-02-11 01:52:00,
2013-02-10 20:57:00,36.6,21.8,30.39,WSW,254,0.0,6.0,55,0.00,,,0.00,WX3IN1Plus v1.30,2013-02-11 01:57:00,
2013-02-10 21:02:00,36.6,22.1,30.38,SSW,201,0.0,5.0,56,0.00,,,0.00,WX3IN1Plus v1.30,2013-02-11 02:02:00,
2013-02-10 21:07:00,36.7,23.4,30.38,SSW,203,2.0,5.4,58,0.00,,,0.00,WX3IN1Plus v1.30,2013-02-11 02:07:00,
2013-02-10 21:12:00,36.5,23.9,30.37,South,180,0.0,4.9,60,0.00,,,0.00,WX3IN1Plus v1.30,2013-02-11 02:12:00,
2013-02-10 21:17:00,36.5,24.3,30.37,West,260,0.9,5.7,61,0.00,,,0.00,WX3IN1Plus v1.30,2013-02-11 02:17:00,
2013-02-10 21:22:00,36.5,24.7,30.37,SE,139,1.9,6.0,62,0.00,,,0.00,WX3IN1Plus v1.30,2013-02-11 02:22:00,
2013-02-10 21:27:00,36.4,25.0,30.37,SSE,151,0.8,5.9,63,0.00,,,0.00,WX3IN1Plus v1.30,2013-02-11 02:27:00,
2013-02-10 21:32:00,36.5,25.4,30.37,SSW,212,3.3,7.7,64,0.00,,,0.00,WX3IN1Plus v1.30,2013-02-11 02:32:00,
2013-02-10 21:37:00,36.5,25.7,30.37,South,178,3.7,7.2,65,0.00,,,0.00,WX3IN1Plus v1.30,2013-02-11 02:37:00,
2013-02-10 21:42:00,36.4,26.1,30.36,SW,234,4.4,9.3,66,0.00,,,0.00,WX3IN1Plus v1.30,2013-02-11 02:42:00,
2013-02-10 21:47:00,36.4,26.5,30.36,SSW,194,2.1,6.2,67,0.00,,,0.00,WX3IN1Plus v1.30,2013-02-11 02:47:00,
2013-02-10 21:52:00,36.5,26.8,30.35,SSW,208,2.7,9.0,68,0.00,,,0.00,WX3IN1Plus v1.30,2013-02-11 02:52:00,
2013-02-10 21:57:00,36.6,26.8,30.35,SSE,149,0.0,7.8,68,0.00,,,0.00,WX3IN1Plus v1.30,2013-02-11 02:57:00,
2013-02-10 22:02:00,36.6,27.2,30.35,SW,234,3.2,8.3,69,0.00,,,0.00,WX3IN1Plus v1.30,2013-02-11 03:02:00,
2013-02-10 22:07:00,36.7,27.5,30.34,WSW,239,7.3,7.3,69,0.00,,,0.00,WX3IN1Plus v1.30,2013-02-11 03:07:00,
2013-02-10 22:12:00,36.3,27.2,30.34,SSW,195,2.9,9.0,70,0.00,,,0.00,WX3IN1Plus v1.30,2013-02-11 03:12:00,
2013-02-10 22:17:00,36.4,27.5,30.33,WSW,239,5.7,6.0,70,0.00,,,0.00,WX3IN1Plus v1.30,2013-02-11 03:17:00,
2013-02-10 22:22:00,36.4,28.3,30.33,WSW,255,2.5,11.3,72,0.00,,,0.00,WX3IN1Plus v1.30,2013-02-11 03:22:00,
2013-02-10 22:27:00,36.3,27.9,30.33,South,170,3.6,7.6,72,0.00,,,0.00,WX3IN1Plus v1.30,2013-02-11 03:27:00,
2013-02-10 22:32:00,36.4,28.6,30.33,SSE,165,2.5,9.8,73,0.00,,,0.00,WX3IN1Plus v1.30,2013-02-11 03:32:00,
2013-02-10 22:37:00,36.3,28.4,30.33,West,270,1.9,8.2,73,0.00,,,0.00,WX3IN1Plus v1.30,2013-02-11 03:37:00,
2013-02-10 22:42:00,36.3,28.6,30.33,West,268,7.8,7.8,74,0.00,,,0.00,WX3IN1Plus v1.30,2013-02-11 03:42:00,
2013-02-10 22:47:00,36.3,28.6,30.33,West,267,2.5,8.0,74,0.00,,,0.00,WX3IN1Plus v1.30,2013-02-11 03:47:00,
2013-02-10 22:52:00,36.2,29.0,30.32,South,170,2.1,7.0,75,0.00,,,0.00,WX3IN1Plus v1.30,2013-02-11 03:52:00,
2013-02-10 22:57:00,36.1,28.6,30.32,ESE,119,1.1,4.4,75,0.00,,,0.00,WX3IN1Plus v1.30,2013-02-11 03:57:00,
2013-02-10 23:02:00,36.4,29.2,30.32,West,272,0.0,5.4,75,0.00,,,0.00,WX3IN1Plus v1.30,2013-02-11 04:02:00,
2013-02-10 23:07:00,36.3,29.3,30.32,South,185,0.5,5.5,76,0.00,,,0.00,WX3IN1Plus v1.30,2013-02-11 04:07:00,
2013-02-10 23:12:00,36.3,29.3,30.31,SSE,168,3.1,6.9,76,0.00,,,0.00,WX3IN1Plus v1.30,2013-02-11 04:12:00,
2013-02-10 23:17:00,36.1,29.2,30.32,WNW,295,4.9,8.6,76,0.00,,,0.00,WX3IN1Plus v1.30,2013-02-11 04:17:00,
2013-02-10 23:22:00,36.2,29.7,30.31,South,177,5.9,7.4,77,0.00,,,0.00,WX3IN1Plus v1.30,2013-02-11 04:22:00,
2013-02-10 23:27:00,36.3,29.7,30.31,SW,223,0.9,6.2,77,0.00,,,0.00,WX3IN1Plus v1.30,2013-02-11 04:27:00,
2013-02-10 23:32:00,36.2,29.9,30.31,South,188,4.5,5.9,78,0.00,,,0.00,WX3IN1Plus v1.30,2013-02-11 04:32:00,
2013-02-10 23:37:00,36.2,29.9,30.31,SW,223,2.7,6.2,78,0.00,,,0.00,WX3IN1Plus v1.30,2013-02-11 04:37:00,
2013-02-10 23:42:00,36.2,30.2,30.31,ESE,115,0.0,5.2,79,0.00,,,0.00,WX3IN1Plus v1.30,2013-02-11 04:42:00,
2013-02-10 23:47:00,36.3,30.2,30.31,SW,220,0.0,4.3,79,0.00,,,0.00,WX3IN1Plus v1.30,2013-02-11 04:47:00,
2013-02-10 23:52:00,36.1,30.4,30.31,WSW,239,4.5,6.4,80,0.00,,,0.00,WX3IN1Plus v1.30,2013-02-11 04:52:00,
2013-02-10 23:57:00,36.3,30.6,30.31,South,175,3.7,5.7,80,0.00,,,0.00,WX3IN1Plus v1.30,2013-02-11 04:57:00,